Centralia, Canada
Current Conditions -  °F | °C
As of 3:00 PM on Wednesday 28 Jan 2015 (Local Time) from CYXU Reporting Station
Broken Clouds Broken Clouds  
Wind Chill: 23°   Ceiling: 25000
Heat Index: 23°   Visibility: 15mi
Dew Point:   Wind: 3mph
Humidity: 43%   Direction: 120°ESE
Pressure: 30.28"   Gusts: NA
Location:  43.28°N, 81.47°W
Report Text: CYXU 282000Z 12003KT 030V120 15SM BKN250 M05/M16 A3028 RMK CI5 SLP273
Loading
Personal Weather Stations






























Interactive Weather Map New forecast layout! Learn more

10-Day Weather Forecast

Advertisements
Track Severe Weather on mobile